Terminal Aerodrome Forecast
Issued by NWS

Home | Current Version | Previous Version | Text Only | Print | Product List | Glossary On
Versions: 1 2 3 4 5 6 7 8 9 10 11 12 13 14 15 16 17 18 19 20 21 22 23 24 25 26 27 28
000
FTUS41 KOKX 260655 AAA
TAFTEB
TAF AMD
KTEB 260655Z 2607/2706 VRB02KT P6SM SCT010
     FM260800 06002KT 5SM BR BKN010
     FM261300 05005KT 6SM HZ SCT012 BKN250
     FM261600 07006KT P6SM FEW025 BKN250
     FM261900 12006KT P6SM FEW030 BKN250=

USA.gov is the U.S. government's official web portal to all federal, state and local government web resources and services.